sensor_id;sensor_type;location;lat;lon;timestamp;P1;durP1;ratioP1;P2;durP2;ratioP2
74644;SDS011;63163;55.630;37.594;2022-10-03T00:00:05;21.2;;;12.9;;
74644;SDS011;63163;55.630;37.594;2022-10-03T00:01:13;21.8;;;12.8;;
74644;SDS011;63163;55.630;37.594;2022-10-03T00:02:19;18.6;;;11.7;;
74644;SDS011;63163;55.630;37.594;2022-10-03T00:03:29;18.5;;;11.6;;
74644;SDS011;63163;55.630;37.594;2022-10-03T00:04:43;19.7;;;12.4;;
74644;SDS011;63163;55.630;37.594;2022-10-03T00:05:52;17.9;;;12.0;;
74644;SDS011;63163;55.630;37.594;2022-10-03T00:06:58;18.9;;;12.5;;
74644;SDS011;63163;55.630;37.594;2022-10-03T00:08:06;21.7;;;12.6;;
74644;SDS011;63163;55.630;37.594;2022-10-03T00:09:13;17.9;;;12.0;;
74644;SDS011;63163;55.630;37.594;2022-10-03T00:10:21;17.5;;;11.4;;
74644;SDS011;63163;55.630;37.594;2022-10-03T00:11:26;17.4;;;11.4;;
74644;SDS011;63163;55.630;37.594;2022-10-03T00:12:35;18.3;;;11.2;;
74644;SDS011;63163;55.630;37.594;2022-10-03T00:13:39;17.6;;;11.1;;
74644;SDS011;63163;55.630;37.594;2022-10-03T00:14:43;18.2;;;11.3;;
74644;SDS011;63163;55.630;37.594;2022-10-03T00:15:48;16.0;;;10.8;;
74644;SDS011;63163;55.630;37.594;2022-10-03T00:16:51;17.8;;;10.9;;
74644;SDS011;63163;55.630;37.594;2022-10-03T00:17:56;16.7;;;11.1;;
74644;SDS011;63163;55.630;37.594;2022-10-03T00:19:00;18.0;;;11.0;;
74644;SDS011;63163;55.630;37.594;2022-10-03T00:20:04;21.6;;;11.8;;
74644;SDS011;63163;55.630;37.594;2022-10-03T00:21:13;18.2;;;11.0;;
74644;SDS011;63163;55.630;37.594;2022-10-03T00:22:21;20.0;;;12.2;;
74644;SDS011;63163;55.630;37.594;2022-10-03T00:23:26;18.0;;;11.1;;
74644;SDS011;63163;55.630;37.594;2022-10-03T00:24:40;19.7;;;11.0;;
74644;SDS011;63163;55.630;37.594;2022-10-03T00:25:45;19.4;;;11.0;;
74644;SDS011;63163;55.630;37.594;2022-10-03T00:26:49;18.9;;;11.5;;
74644;SDS011;63163;55.630;37.594;2022-10-03T00:27:53;17.6;;;11.3;;
74644;SDS011;63163;55.630;37.594;2022-10-03T00:28:59;21.6;;;10.8;;
74644;SDS011;63163;55.630;37.594;2022-10-03T00:30:17;20.3;;;11.7;;
74644;SDS011;63163;55.630;37.594;2022-10-03T00:31:20;19.1;;;11.6;;
74644;SDS011;63163;55.630;37.594;2022-10-03T00:32:27;18.1;;;10.4;;
74644;SDS011;63163;55.630;37.594;2022-10-03T00:33:31;16.2;;;10.6;;
74644;SDS011;63163;55.630;37.594;2022-10-03T00:34:37;18.1;;;11.7;;
74644;SDS011;63163;55.630;37.594;2022-10-03T00:35:43;19.4;;;11.4;;
74644;SDS011;63163;55.630;37.594;2022-10-03T00:36:49;19.1;;;10.8;;
74644;SDS011;63163;55.630;37.594;2022-10-03T00:37:57;16.1;;;10.7;;
74644;SDS011;63163;55.630;37.594;2022-10-03T00:39:07;19.9;;;10.9;;
74644;SDS011;63163;55.630;37.594;2022-10-03T00:40:24;19.3;;;11.4;;
74644;SDS011;63163;55.630;37.594;2022-10-03T00:41:37;19.2;;;11.1;;
74644;SDS011;63163;55.630;37.594;2022-10-03T00:42:52;19.2;;;10.7;;
74644;SDS011;63163;55.630;37.594;2022-10-03T00:44:06;17.3;;;10.5;;
74644;SDS011;63163;55.630;37.594;2022-10-03T00:45:19;17.3;;;10.9;;
74644;SDS011;63163;55.630;37.594;2022-10-03T00:46:32;21.4;;;10.9;;
74644;SDS011;63163;55.630;37.594;2022-10-03T00:47:40;16.8;;;10.3;;
74644;SDS011;63163;55.630;37.594;2022-10-03T00:48:51;18.5;;;10.5;;
74644;SDS011;63163;55.630;37.594;2022-10-03T00:50:06;15.2;;;10.4;;
74644;SDS011;63163;55.630;37.594;2022-10-03T00:51:16;17.5;;;10.8;;
74644;SDS011;63163;55.630;37.594;2022-10-03T00:52:25;17.6;;;10.3;;
74644;SDS011;63163;55.630;37.594;2022-10-03T00:53:34;16.9;;;10.5;;
74644;SDS011;63163;55.630;37.594;2022-10-03T00:54:40;16.2;;;10.2;;
74644;SDS011;63163;55.630;37.594;2022-10-03T00:55:48;18.2;;;10.6;;
74644;SDS011;63163;55.630;37.594;2022-10-03T00:56:58;16.3;;;11.2;;
74644;SDS011;63163;55.630;37.594;2022-10-03T00:58:07;20.7;;;11.4;;
74644;SDS011;63163;55.630;37.594;2022-10-03T00:59:13;18.9;;;11.7;;
74644;SDS011;63163;55.630;37.594;2022-10-03T01:00:17;19.2;;;11.3;;
74644;SDS011;63163;55.630;37.594;2022-10-03T01:01:21;16.7;;;11.2;;
74644;SDS011;63163;55.630;37.594;2022-10-03T01:02:27;16.1;;;9.9;;
74644;SDS011;63163;55.630;37.594;2022-10-03T01:03:35;17.6;;;12.1;;
74644;SDS011;63163;55.630;37.594;2022-10-03T01:04:41;16.6;;;10.4;;
74644;SDS011;63163;55.630;37.594;2022-10-03T01:05:48;16.1;;;11.7;;
74644;SDS011;63163;55.630;37.594;2022-10-03T01:06:55;18.9;;;11.5;;
74644;SDS011;63163;55.630;37.594;2022-10-03T01:08:04;16.7;;;10.8;;
74644;SDS011;63163;55.630;37.594;2022-10-03T01:09:11;18.9;;;12.3;;
74644;SDS011;63163;55.630;37.594;2022-10-03T01:10:17;18.4;;;12.1;;
74644;SDS011;63163;55.630;37.594;2022-10-03T01:11:24;17.3;;;11.8;;
74644;SDS011;63163;55.630;37.594;2022-10-03T01:12:39;18.9;;;12.7;;
74644;SDS011;63163;55.630;37.594;2022-10-03T01:13:47;18.4;;;11.9;;
74644;SDS011;63163;55.630;37.594;2022-10-03T01:14:56;18.3;;;12.4;;
74644;SDS011;63163;55.630;37.594;2022-10-03T01:16:02;18.9;;;12.9;;
74644;SDS011;63163;55.630;37.594;2022-10-03T01:17:05;18.6;;;12.2;;
74644;SDS011;63163;55.630;37.594;2022-10-03T01:18:13;21.4;;;13.4;;
74644;SDS011;63163;55.630;37.594;2022-10-03T01:19:21;19.2;;;12.7;;
74644;SDS011;63163;55.630;37.594;2022-10-03T01:20:27;21.0;;;13.4;;
74644;SDS011;63163;55.630;37.594;2022-10-03T01:21:32;20.4;;;13.6;;
74644;SDS011;63163;55.630;37.594;2022-10-03T01:22:41;20.0;;;13.1;;
74644;SDS011;63163;55.630;37.594;2022-10-03T01:23:51;20.5;;;13.1;;
74644;SDS011;63163;55.630;37.594;2022-10-03T01:24:56;19.0;;;13.4;;
74644;SDS011;63163;55.630;37.594;2022-10-03T01:26:02;22.4;;;14.2;;
74644;SDS011;63163;55.630;37.594;2022-10-03T01:27:05;19.6;;;12.8;;
74644;SDS011;63163;55.630;37.594;2022-10-03T01:28:30;19.9;;;13.5;;
74644;SDS011;63163;55.630;37.594;2022-10-03T01:31:45;22.6;;;15.5;;
74644;SDS011;63163;55.630;37.594;2022-10-03T01:32:50;20.5;;;12.9;;
74644;SDS011;63163;55.630;37.594;2022-10-03T01:33:57;22.6;;;14.9;;
74644;SDS011;63163;55.630;37.594;2022-10-03T01:35:01;20.7;;;12.9;;
74644;SDS011;63163;55.630;37.594;2022-10-03T01:36:07;20.5;;;13.1;;
74644;SDS011;63163;55.630;37.594;2022-10-03T01:37:11;19.3;;;13.5;;
74644;SDS011;63163;55.630;37.594;2022-10-03T01:38:15;18.2;;;13.1;;
74644;SDS011;63163;55.630;37.594;2022-10-03T01:39:20;22.0;;;13.5;;
74644;SDS011;63163;55.630;37.594;2022-10-03T01:40:26;20.1;;;13.0;;
74644;SDS011;63163;55.630;37.594;2022-10-03T01:41:30;21.1;;;12.0;;
74644;SDS011;63163;55.630;37.594;2022-10-03T01:42:36;21.9;;;13.0;;
74644;SDS011;63163;55.630;37.594;2022-10-03T01:43:41;19.3;;;12.8;;
74644;SDS011;63163;55.630;37.594;2022-10-03T01:44:47;17.6;;;12.0;;
74644;SDS011;63163;55.630;37.594;2022-10-03T01:45:54;21.9;;;13.4;;
74644;SDS011;63163;55.630;37.594;2022-10-03T01:47:04;19.4;;;11.7;;
74644;SDS011;63163;55.630;37.594;2022-10-03T01:48:10;17.9;;;11.5;;
74644;SDS011;63163;55.630;37.594;2022-10-03T01:49:14;19.4;;;13.0;;
74644;SDS011;63163;55.630;37.594;2022-10-03T01:50:20;19.7;;;12.1;;
74644;SDS011;63163;55.630;37.594;2022-10-03T01:51:25;17.0;;;11.6;;
74644;SDS011;63163;55.630;37.594;2022-10-03T01:52:32;19.9;;;12.9;;
74644;SDS011;63163;55.630;37.594;2022-10-03T01:53:41;17.9;;;11.7;;
74644;SDS011;63163;55.630;37.594;2022-10-03T01:54:45;16.1;;;10.6;;
74644;SDS011;63163;55.630;37.594;2022-10-03T01:55:52;13.6;;;9.8;;
74644;SDS011;63163;55.630;37.594;2022-10-03T01:56:55;19.7;;;12.2;;
74644;SDS011;63163;55.630;37.594;2022-10-03T01:57:59;18.0;;;11.2;;
74644;SDS011;63163;55.630;37.594;2022-10-03T01:59:02;17.2;;;11.0;;
74644;SDS011;63163;55.630;37.594;2022-10-03T02:00:05;19.1;;;11.2;;
74644;SDS011;63163;55.630;37.594;2022-10-03T02:01:09;18.6;;;11.3;;
74644;SDS011;63163;55.630;37.594;2022-10-03T02:02:13;16.4;;;11.7;;
74644;SDS011;63163;55.630;37.594;2022-10-03T02:03:19;16.0;;;10.7;;
74644;SDS011;63163;55.630;37.594;2022-10-03T02:04:27;14.2;;;9.5;;
74644;SDS011;63163;55.630;37.594;2022-10-03T02:05:35;14.2;;;10.3;;
74644;SDS011;63163;55.630;37.594;2022-10-03T02:06:41;16.2;;;10.0;;
74644;SDS011;63163;55.630;37.594;2022-10-03T02:07:44;18.4;;;10.3;;
74644;SDS011;63163;55.630;37.594;2022-10-03T02:08:50;14.4;;;9.7;;
74644;SDS011;63163;55.630;37.594;2022-10-03T02:09:58;13.9;;;10.1;;
74644;SDS011;63163;55.630;37.594;2022-10-03T02:11:00;16.1;;;10.0;;
74644;SDS011;63163;55.630;37.594;2022-10-03T02:12:04;14.8;;;10.2;;
74644;SDS011;63163;55.630;37.594;2022-10-03T02:13:08;18.0;;;10.2;;
74644;SDS011;63163;55.630;37.594;2022-10-03T02:14:16;15.4;;;9.7;;
74644;SDS011;63163;55.630;37.594;2022-10-03T02:15:20;15.2;;;9.9;;
74644;SDS011;63163;55.630;37.594;2022-10-03T02:16:27;15.5;;;10.4;;
74644;SDS011;63163;55.630;37.594;2022-10-03T02:17:32;15.4;;;10.2;;
74644;SDS011;63163;55.630;37.594;2022-10-03T02:18:42;14.9;;;10.0;;
74644;SDS011;63163;55.630;37.594;2022-10-03T02:19:47;16.5;;;10.8;;
74644;SDS011;63163;55.630;37.594;2022-10-03T02:20:50;14.3;;;9.8;;
74644;SDS011;63163;55.630;37.594;2022-10-03T02:21:53;14.2;;;9.8;;
74644;SDS011;63163;55.630;37.594;2022-10-03T02:22:55;16.4;;;9.7;;
74644;SDS011;63163;55.630;37.594;2022-10-03T02:24:07;14.2;;;9.9;;
74644;SDS011;63163;55.630;37.594;2022-10-03T02:25:14;15.5;;;9.8;;
74644;SDS011;63163;55.630;37.594;2022-10-03T02:26:29;16.6;;;10.7;;
74644;SDS011;63163;55.630;37.594;2022-10-03T02:27:38;16.5;;;9.9;;
74644;SDS011;63163;55.630;37.594;2022-10-03T02:28:54;13.9;;;9.5;;
74644;SDS011;63163;55.630;37.594;2022-10-03T02:30:04;14.6;;;9.8;;
74644;SDS011;63163;55.630;37.594;2022-10-03T02:31:15;15.1;;;9.7;;
74644;SDS011;63163;55.630;37.594;2022-10-03T02:32:45;14.3;;;9.4;;
74644;SDS011;63163;55.630;37.594;2022-10-03T02:33:56;14.5;;;9.7;;
74644;SDS011;63163;55.630;37.594;2022-10-03T02:35:11;16.7;;;11.0;;
74644;SDS011;63163;55.630;37.594;2022-10-03T02:36:29;14.6;;;10.5;;
74644;SDS011;63163;55.630;37.594;2022-10-03T02:37:45;16.4;;;11.0;;
74644;SDS011;63163;55.630;37.594;2022-10-03T02:38:52;18.0;;;11.4;;
74644;SDS011;63163;55.630;37.594;2022-10-03T02:40:05;17.9;;;11.6;;
74644;SDS011;63163;55.630;37.594;2022-10-03T02:41:12;15.6;;;10.5;;
74644;SDS011;63163;55.630;37.594;2022-10-03T02:42:30;15.2;;;9.9;;
74644;SDS011;63163;55.630;37.594;2022-10-03T02:43:49;16.9;;;11.1;;
74644;SDS011;63163;55.630;37.594;2022-10-03T02:45:01;17.3;;;11.1;;
74644;SDS011;63163;55.630;37.594;2022-10-03T02:46:17;16.4;;;10.3;;
74644;SDS011;63163;55.630;37.594;2022-10-03T02:47:23;17.2;;;11.3;;
74644;SDS011;63163;55.630;37.594;2022-10-03T02:48:35;16.5;;;10.4;;
74644;SDS011;63163;55.630;37.594;2022-10-03T02:51:53;18.1;;;10.5;;
74644;SDS011;63163;55.630;37.594;2022-10-03T02:53:01;17.6;;;10.4;;
74644;SDS011;63163;55.630;37.594;2022-10-03T02:54:12;15.7;;;10.2;;
74644;SDS011;63163;55.630;37.594;2022-10-03T02:55:24;15.7;;;9.5;;
74644;SDS011;63163;55.630;37.594;2022-10-03T02:56:35;13.5;;;9.8;;
74644;SDS011;63163;55.630;37.594;2022-10-03T02:59:56;12.9;;;8.3;;
74644;SDS011;63163;55.630;37.594;2022-10-03T03:01:24;14.1;;;9.1;;
74644;SDS011;63163;55.630;37.594;2022-10-03T03:02:33;14.2;;;9.2;;
74644;SDS011;63163;55.630;37.594;2022-10-03T03:03:45;12.5;;;8.3;;
74644;SDS011;63163;55.630;37.594;2022-10-03T03:04:56;13.8;;;8.4;;
74644;SDS011;63163;55.630;37.594;2022-10-03T03:06:23;13.4;;;8.7;;
74644;SDS011;63163;55.630;37.594;2022-10-03T03:07:31;14.4;;;9.1;;
74644;SDS011;63163;55.630;37.594;2022-10-03T03:08:43;14.2;;;9.3;;
74644;SDS011;63163;55.630;37.594;2022-10-03T03:09:56;13.7;;;9.4;;
74644;SDS011;63163;55.630;37.594;2022-10-03T03:13:12;13.0;;;8.9;;
74644;SDS011;63163;55.630;37.594;2022-10-03T03:14:35;14.7;;;9.8;;
74644;SDS011;63163;55.630;37.594;2022-10-03T03:15:45;15.4;;;10.1;;
74644;SDS011;63163;55.630;37.594;2022-10-03T03:16:59;14.1;;;9.5;;
74644;SDS011;63163;55.630;37.594;2022-10-03T03:18:02;13.5;;;9.3;;
74644;SDS011;63163;55.630;37.594;2022-10-03T03:19:12;13.4;;;8.9;;
74644;SDS011;63163;55.630;37.594;2022-10-03T03:20:20;13.4;;;9.1;;
74644;SDS011;63163;55.630;37.594;2022-10-03T03:21:26;14.1;;;8.6;;
74644;SDS011;63163;55.630;37.594;2022-10-03T03:22:32;13.8;;;9.5;;
74644;SDS011;63163;55.630;37.594;2022-10-03T03:23:37;15.2;;;9.6;;
74644;SDS011;63163;55.630;37.594;2022-10-03T03:24:45;13.9;;;9.3;;
74644;SDS011;63163;55.630;37.594;2022-10-03T03:25:56;15.1;;;9.4;;
74644;SDS011;63163;55.630;37.594;2022-10-03T03:27:03;14.4;;;9.3;;
74644;SDS011;63163;55.630;37.594;2022-10-03T03:28:09;13.8;;;9.6;;
74644;SDS011;63163;55.630;37.594;2022-10-03T03:29:17;14.3;;;9.9;;
74644;SDS011;63163;55.630;37.594;2022-10-03T03:30:20;16.2;;;9.7;;
74644;SDS011;63163;55.630;37.594;2022-10-03T03:31:23;15.1;;;9.4;;
74644;SDS011;63163;55.630;37.594;2022-10-03T03:32:28;12.5;;;8.8;;
74644;SDS011;63163;55.630;37.594;2022-10-03T03:33:34;13.7;;;9.3;;
74644;SDS011;63163;55.630;37.594;2022-10-03T03:34:39;17.4;;;10.2;;
74644;SDS011;63163;55.630;37.594;2022-10-03T03:35:46;13.5;;;9.2;;
74644;SDS011;63163;55.630;37.594;2022-10-03T03:36:52;13.8;;;9.3;;
74644;SDS011;63163;55.630;37.594;2022-10-03T03:37:56;14.9;;;9.8;;
74644;SDS011;63163;55.630;37.594;2022-10-03T03:39:02;14.7;;;10.0;;
74644;SDS011;63163;55.630;37.594;2022-10-03T03:40:10;15.5;;;9.8;;
74644;SDS011;63163;55.630;37.594;2022-10-03T03:41:25;15.1;;;9.5;;
74644;SDS011;63163;55.630;37.594;2022-10-03T03:42:33;15.6;;;10.2;;
74644;SDS011;63163;55.630;37.594;2022-10-03T03:43:39;14.7;;;9.5;;
74644;SDS011;63163;55.630;37.594;2022-10-03T03:44:49;13.5;;;9.2;;
74644;SDS011;63163;55.630;37.594;2022-10-03T03:45:56;14.9;;;9.2;;
74644;SDS011;63163;55.630;37.594;2022-10-03T03:47:03;15.6;;;9.6;;
74644;SDS011;63163;55.630;37.594;2022-10-03T03:48:15;14.1;;;9.3;;
74644;SDS011;63163;55.630;37.594;2022-10-03T03:49:25;14.4;;;9.1;;
74644;SDS011;63163;55.630;37.594;2022-10-03T03:50:32;14.5;;;9.2;;
74644;SDS011;63163;55.630;37.594;2022-10-03T03:51:39;12.9;;;8.7;;
74644;SDS011;63163;55.630;37.594;2022-10-03T03:52:45;13.3;;;8.4;;
74644;SDS011;63163;55.630;37.594;2022-10-03T03:53:54;13.1;;;8.5;;
74644;SDS011;63163;55.630;37.594;2022-10-03T03:55:03;13.3;;;9.2;;
74644;SDS011;63163;55.630;37.594;2022-10-03T03:56:10;13.5;;;8.5;;
74644;SDS011;63163;55.630;37.594;2022-10-03T03:57:23;14.7;;;8.4;;
74644;SDS011;63163;55.630;37.594;2022-10-03T03:58:31;12.3;;;7.9;;
74644;SDS011;63163;55.630;37.594;2022-10-03T03:59:37;11.0;;;7.9;;
74644;SDS011;63163;55.630;37.594;2022-10-03T04:00:44;10.5;;;7.6;;
74644;SDS011;63163;55.630;37.594;2022-10-03T04:01:54;12.7;;;8.6;;
74644;SDS011;63163;55.630;37.594;2022-10-03T04:03:02;12.6;;;8.5;;
74644;SDS011;63163;55.630;37.594;2022-10-03T04:04:07;11.3;;;8.1;;
74644;SDS011;63163;55.630;37.594;2022-10-03T04:05:15;11.9;;;8.2;;
74644;SDS011;63163;55.630;37.594;2022-10-03T04:06:22;12.2;;;9.1;;
74644;SDS011;63163;55.630;37.594;2022-10-03T04:07:29;12.8;;;8.8;;
74644;SDS011;63163;55.630;37.594;2022-10-03T04:08:37;14.5;;;9.6;;
74644;SDS011;63163;55.630;37.594;2022-10-03T04:09:44;14.5;;;9.4;;
74644;SDS011;63163;55.630;37.594;2022-10-03T04:10:52;13.3;;;9.6;;
74644;SDS011;63163;55.630;37.594;2022-10-03T04:11:58;13.0;;;9.0;;
74644;SDS011;63163;55.630;37.594;2022-10-03T04:13:12;15.3;;;9.7;;
74644;SDS011;63163;55.630;37.594;2022-10-03T04:14:24;15.6;;;10.0;;
74644;SDS011;63163;55.630;37.594;2022-10-03T04:15:33;15.2;;;10.6;;
74644;SDS011;63163;55.630;37.594;2022-10-03T04:16:40;15.2;;;9.8;;
74644;SDS011;63163;55.630;37.594;2022-10-03T04:19:55;15.9;;;10.5;;
74644;SDS011;63163;55.630;37.594;2022-10-03T04:21:07;15.2;;;11.1;;
74644;SDS011;63163;55.630;37.594;2022-10-03T04:22:13;16.7;;;12.7;;
74644;SDS011;63163;55.630;37.594;2022-10-03T04:23:21;16.7;;;10.5;;
74644;SDS011;63163;55.630;37.594;2022-10-03T04:24:31;16.2;;;10.5;;
74644;SDS011;63163;55.630;37.594;2022-10-03T04:25:38;18.2;;;11.2;;
74644;SDS011;63163;55.630;37.594;2022-10-03T04:26:42;15.6;;;11.4;;
74644;SDS011;63163;55.630;37.594;2022-10-03T04:28:06;16.4;;;11.7;;
74644;SDS011;63163;55.630;37.594;2022-10-03T04:29:17;16.4;;;11.3;;
74644;SDS011;63163;55.630;37.594;2022-10-03T04:30:21;19.2;;;12.3;;
74644;SDS011;63163;55.630;37.594;2022-10-03T04:31:25;16.8;;;11.4;;
74644;SDS011;63163;55.630;37.594;2022-10-03T04:32:34;17.5;;;12.3;;
74644;SDS011;63163;55.630;37.594;2022-10-03T04:33:38;16.0;;;11.7;;
74644;SDS011;63163;55.630;37.594;2022-10-03T04:34:48;21.6;;;13.4;;
74644;SDS011;63163;55.630;37.594;2022-10-03T04:36:14;17.7;;;11.9;;
74644;SDS011;63163;55.630;37.594;2022-10-03T04:37:25;17.8;;;12.5;;
74644;SDS011;63163;55.630;37.594;2022-10-03T04:38:37;17.7;;;11.8;;
74644;SDS011;63163;55.630;37.594;2022-10-03T04:39:41;18.2;;;12.1;;
74644;SDS011;63163;55.630;37.594;2022-10-03T04:40:46;18.6;;;12.1;;
74644;SDS011;63163;55.630;37.594;2022-10-03T04:41:49;19.3;;;13.3;;
74644;SDS011;63163;55.630;37.594;2022-10-03T04:42:53;22.9;;;13.2;;
74644;SDS011;63163;55.630;37.594;2022-10-03T04:44:00;18.3;;;12.7;;
74644;SDS011;63163;55.630;37.594;2022-10-03T04:45:09;18.3;;;13.1;;
74644;SDS011;63163;55.630;37.594;2022-10-03T04:46:15;18.8;;;13.1;;
74644;SDS011;63163;55.630;37.594;2022-10-03T04:47:19;17.3;;;12.5;;
74644;SDS011;63163;55.630;37.594;2022-10-03T04:48:23;21.9;;;13.6;;
74644;SDS011;63163;55.630;37.594;2022-10-03T04:49:29;17.0;;;12.7;;
74644;SDS011;63163;55.630;37.594;2022-10-03T04:50:33;20.4;;;14.3;;
74644;SDS011;63163;55.630;37.594;2022-10-03T04:51:39;17.7;;;13.3;;
74644;SDS011;63163;55.630;37.594;2022-10-03T04:52:43;21.9;;;13.8;;
74644;SDS011;63163;55.630;37.594;2022-10-03T04:53:49;18.4;;;13.5;;
74644;SDS011;63163;55.630;37.594;2022-10-03T04:54:54;19.3;;;14.0;;
74644;SDS011;63163;55.630;37.594;2022-10-03T04:56:02;17.6;;;13.7;;
74644;SDS011;63163;55.630;37.594;2022-10-03T04:57:06;22.9;;;14.0;;
74644;SDS011;63163;55.630;37.594;2022-10-03T04:58:16;21.0;;;14.9;;
74644;SDS011;63163;55.630;37.594;2022-10-03T04:59:24;21.9;;;14.2;;
74644;SDS011;63163;55.630;37.594;2022-10-03T05:00:28;21.2;;;13.7;;
74644;SDS011;63163;55.630;37.594;2022-10-03T05:01:32;19.5;;;14.7;;
74644;SDS011;63163;55.630;37.594;2022-10-03T05:02:38;23.5;;;15.0;;
74644;SDS011;63163;55.630;37.594;2022-10-03T05:03:46;22.5;;;15.8;;
74644;SDS011;63163;55.630;37.594;2022-10-03T05:04:53;22.1;;;14.0;;
74644;SDS011;63163;55.630;37.594;2022-10-03T05:05:57;21.4;;;14.6;;
74644;SDS011;63163;55.630;37.594;2022-10-03T05:07:01;20.9;;;15.3;;
74644;SDS011;63163;55.630;37.594;2022-10-03T05:08:10;22.1;;;13.1;;
74644;SDS011;63163;55.630;37.594;2022-10-03T05:09:14;17.6;;;12.3;;
74644;SDS011;63163;55.630;37.594;2022-10-03T05:10:24;17.5;;;12.1;;
74644;SDS011;63163;55.630;37.594;2022-10-03T05:11:32;19.9;;;12.8;;
74644;SDS011;63163;55.630;37.594;2022-10-03T05:12:37;20.0;;;12.5;;
74644;SDS011;63163;55.630;37.594;2022-10-03T05:13:43;19.8;;;12.2;;
74644;SDS011;63163;55.630;37.594;2022-10-03T05:14:51;17.4;;;11.6;;
74644;SDS011;63163;55.630;37.594;2022-10-03T05:15:58;16.5;;;11.6;;
74644;SDS011;63163;55.630;37.594;2022-10-03T05:17:06;18.0;;;11.6;;
74644;SDS011;63163;55.630;37.594;2022-10-03T05:18:12;17.5;;;10.7;;
74644;SDS011;63163;55.630;37.594;2022-10-03T05:19:25;17.8;;;10.9;;
74644;SDS011;63163;55.630;37.594;2022-10-03T05:20:31;15.6;;;10.2;;
74644;SDS011;63163;55.630;37.594;2022-10-03T05:21:35;14.3;;;9.9;;
74644;SDS011;63163;55.630;37.594;2022-10-03T05:22:40;16.1;;;9.9;;
74644;SDS011;63163;55.630;37.594;2022-10-03T05:23:45;17.5;;;9.6;;
74644;SDS011;63163;55.630;37.594;2022-10-03T05:24:52;15.5;;;10.1;;
74644;SDS011;63163;55.630;37.594;2022-10-03T05:25:59;13.1;;;9.6;;
74644;SDS011;63163;55.630;37.594;2022-10-03T05:27:02;16.9;;;9.0;;
74644;SDS011;63163;55.630;37.594;2022-10-03T05:28:11;14.6;;;9.6;;
74644;SDS011;63163;55.630;37.594;2022-10-03T05:29:16;13.3;;;8.6;;
74644;SDS011;63163;55.630;37.594;2022-10-03T05:30:19;13.7;;;9.3;;
74644;SDS011;63163;55.630;37.594;2022-10-03T05:31:27;12.9;;;9.0;;
74644;SDS011;63163;55.630;37.594;2022-10-03T05:32:34;13.1;;;8.5;;
74644;SDS011;63163;55.630;37.594;2022-10-03T05:33:37;15.5;;;10.1;;
74644;SDS011;63163;55.630;37.594;2022-10-03T05:34:46;13.3;;;8.6;;
74644;SDS011;63163;55.630;37.594;2022-10-03T05:35:56;11.5;;;8.3;;
74644;SDS011;63163;55.630;37.594;2022-10-03T05:37:13;12.7;;;8.4;;
74644;SDS011;63163;55.630;37.594;2022-10-03T05:38:24;14.6;;;8.3;;
74644;SDS011;63163;55.630;37.594;2022-10-03T05:39:31;12.2;;;8.4;;
74644;SDS011;63163;55.630;37.594;2022-10-03T05:40:35;12.0;;;8.5;;
74644;SDS011;63163;55.630;37.594;2022-10-03T05:41:36;13.1;;;8.2;;
74644;SDS011;63163;55.630;37.594;2022-10-03T05:42:45;13.3;;;8.2;;
74644;SDS011;63163;55.630;37.594;2022-10-03T05:43:54;13.8;;;7.8;;
74644;SDS011;63163;55.630;37.594;2022-10-03T05:45:00;12.9;;;7.4;;
74644;SDS011;63163;55.630;37.594;2022-10-03T05:46:03;12.4;;;8.0;;
74644;SDS011;63163;55.630;37.594;2022-10-03T05:47:10;12.7;;;8.4;;
74644;SDS011;63163;55.630;37.594;2022-10-03T05:48:46;11.6;;;7.6;;
74644;SDS011;63163;55.630;37.594;2022-10-03T05:49:49;10.4;;;7.7;;
74644;SDS011;63163;55.630;37.594;2022-10-03T05:51:01;12.1;;;7.6;;
74644;SDS011;63163;55.630;37.594;2022-10-03T05:52:17;10.6;;;7.3;;
74644;SDS011;63163;55.630;37.594;2022-10-03T05:53:27;13.1;;;7.3;;
74644;SDS011;63163;55.630;37.594;2022-10-03T05:55:07;11.3;;;7.2;;
74644;SDS011;63163;55.630;37.594;2022-10-03T05:56:11;11.7;;;6.8;;
74644;SDS011;63163;55.630;37.594;2022-10-03T05:57:25;11.0;;;6.5;;
74644;SDS011;63163;55.630;37.594;2022-10-03T05:58:35;10.4;;;7.4;;
74644;SDS011;63163;55.630;37.594;2022-10-03T05:59:45;13.8;;;7.0;;
74644;SDS011;63163;55.630;37.594;2022-10-03T06:00:59;13.3;;;7.2;;
74644;SDS011;63163;55.630;37.594;2022-10-03T06:02:11;13.0;;;7.0;;
74644;SDS011;63163;55.630;37.594;2022-10-03T06:03:26;11.1;;;7.2;;
74644;SDS011;63163;55.630;37.594;2022-10-03T06:04:35;12.8;;;6.4;;
74644;SDS011;63163;55.630;37.594;2022-10-03T06:05:43;11.0;;;6.9;;
74644;SDS011;63163;55.630;37.594;2022-10-03T06:06:47;11.3;;;6.3;;
74644;SDS011;63163;55.630;37.594;2022-10-03T06:07:56;11.4;;;6.6;;
74644;SDS011;63163;55.630;37.594;2022-10-03T06:09:07;9.4;;;6.2;;
74644;SDS011;63163;55.630;37.594;2022-10-03T06:10:46;10.2;;;6.0;;
74644;SDS011;63163;55.630;37.594;2022-10-03T06:11:53;10.1;;;6.1;;
74644;SDS011;63163;55.630;37.594;2022-10-03T06:13:01;10.9;;;6.0;;
74644;SDS011;63163;55.630;37.594;2022-10-03T06:14:13;11.3;;;5.9;;
74644;SDS011;63163;55.630;37.594;2022-10-03T06:15:22;10.7;;;5.9;;
74644;SDS011;63163;55.630;37.594;2022-10-03T06:16:29;10.7;;;5.9;;
74644;SDS011;63163;55.630;37.594;2022-10-03T06:17:40;12.4;;;6.2;;
74644;SDS011;63163;55.630;37.594;2022-10-03T06:18:52;9.3;;;5.3;;
74644;SDS011;63163;55.630;37.594;2022-10-03T06:19:57;11.4;;;5.9;;
74644;SDS011;63163;55.630;37.594;2022-10-03T06:21:08;11.5;;;5.7;;
74644;SDS011;63163;55.630;37.594;2022-10-03T06:22:25;10.6;;;6.0;;
74644;SDS011;63163;55.630;37.594;2022-10-03T06:23:56;10.1;;;5.7;;
74644;SDS011;63163;55.630;37.594;2022-10-03T06:25:04;10.9;;;6.4;;
74644;SDS011;63163;55.630;37.594;2022-10-03T06:26:18;11.5;;;6.0;;
74644;SDS011;63163;55.630;37.594;2022-10-03T06:27:31;14.4;;;7.3;;
74644;SDS011;63163;55.630;37.594;2022-10-03T06:29:44;9.4;;;6.4;;
74644;SDS011;63163;55.630;37.594;2022-10-03T06:30:52;12.7;;;6.0;;
74644;SDS011;63163;55.630;37.594;2022-10-03T06:32:07;11.8;;;5.7;;
74644;SDS011;63163;55.630;37.594;2022-10-03T06:33:24;12.3;;;5.9;;
74644;SDS011;63163;55.630;37.594;2022-10-03T06:36:38;11.3;;;5.5;;
74644;SDS011;63163;55.630;37.594;2022-10-03T06:37:48;11.6;;;5.8;;
74644;SDS011;63163;55.630;37.594;2022-10-03T06:39:12;10.9;;;5.1;;
74644;SDS011;63163;55.630;37.594;2022-10-03T06:40:25;12.1;;;5.5;;
74644;SDS011;63163;55.630;37.594;2022-10-03T06:43:43;10.4;;;5.5;;
74644;SDS011;63163;55.630;37.594;2022-10-03T06:44:51;9.1;;;5.1;;
74644;SDS011;63163;55.630;37.594;2022-10-03T06:46:03;10.7;;;4.6;;
74644;SDS011;63163;55.630;37.594;2022-10-03T06:47:13;9.3;;;5.6;;
74644;SDS011;63163;55.630;37.594;2022-10-03T06:48:21;10.1;;;4.8;;
74644;SDS011;63163;55.630;37.594;2022-10-03T06:49:35;9.1;;;4.8;;
74644;SDS011;63163;55.630;37.594;2022-10-03T06:50:46;10.8;;;5.1;;
74644;SDS011;63163;55.630;37.594;2022-10-03T06:51:56;10.5;;;5.2;;
74644;SDS011;63163;55.630;37.594;2022-10-03T06:53:04;11.7;;;4.7;;
74644;SDS011;63163;55.630;37.594;2022-10-03T06:54:14;10.2;;;5.2;;
74644;SDS011;63163;55.630;37.594;2022-10-03T06:57:33;8.4;;;4.7;;
74644;SDS011;63163;55.630;37.594;2022-10-03T06:58:43;9.3;;;5.3;;
74644;SDS011;63163;55.630;37.594;2022-10-03T06:59:52;12.6;;;5.2;;
74644;SDS011;63163;55.630;37.594;2022-10-03T07:00:58;13.5;;;6.2;;
74644;SDS011;63163;55.630;37.594;2022-10-03T07:02:19;10.1;;;5.6;;
74644;SDS011;63163;55.630;37.594;2022-10-03T07:05:07;12.9;;;5.7;;
74644;SDS011;63163;55.630;37.594;2022-10-03T07:06:18;9.2;;;5.5;;
74644;SDS011;63163;55.630;37.594;2022-10-03T07:07:29;10.2;;;5.1;;
74644;SDS011;63163;55.630;37.594;2022-10-03T07:08:40;12.7;;;6.3;;
74644;SDS011;63163;55.630;37.594;2022-10-03T07:09:50;12.6;;;6.0;;